Time;durP1;ratioP1;P1;durP2;ratioP2;P2;SDS_P1;SDS_P2;PMS_P1;PMS_P2;Temp;Humidity;BMP_temperature;BMP_pressure;BME280_temperature;BME280_humidity;BME280_pressure;Samples;Min_cycle;Max_cycle;Signal;HPM_P1;HPM_P2
2021/12/12 00:01:09;;;;;;;0.57;0.57;;;;;;;8.50;82.54;93055.97;2615606;54;20672;-78
2021/12/12 00:03:45;;;;;;;0.77;0.77;;;;;;;6.94;81.53;92871.06;2615773;54;20179;-78
2021/12/12 00:06:47;;;;;;;1.00;1.00;;;;;;;7.50;85.80;92907.19;2615446;54;20177;-79
2021/12/12 00:09:20;;;;;;;1.07;1.03;;;;;;;7.54;82.01;92895.25;2615391;54;20156;-78
2021/12/12 00:11:52;;;;;;;1.47;1.30;;;;;;;8.93;80.83;93082.66;2615834;47;20157;-78
2021/12/12 00:14:29;;;;;;;1.30;1.30;;;;;;;6.69;79.68;92774.28;2616023;47;20160;-78
2021/12/12 00:17:02;;;;;;;1.03;1.03;;;;;;;8.76;80.74;93120.53;2615868;54;20176;-78
2021/12/12 00:19:35;;;;;;;0.40;0.40;;;;;;;7.51;84.60;92829.72;2615477;47;20152;-78
2021/12/12 00:22:13;;;;;;;1.13;1.13;;;;;;;8.29;80.79;92930.84;2615829;54;20267;-78
2021/12/12 00:24:45;;;;;;;0.90;0.90;;;;;;;9.18;83.07;92967.88;2615753;54;20165;-78
2021/12/12 00:27:19;;;;;;;1.20;1.10;;;;;;;9.40;77.56;93052.16;2615886;54;20157;-78
2021/12/12 00:29:48;;;;;;;0.90;0.90;;;;;;;8.80;77.14;92937.84;2616553;54;20148;-78
2021/12/12 00:32:19;;;;;;;0.47;0.47;;;;;;;9.91;81.42;93062.56;2616628;47;20153;-78
2021/12/12 00:35:03;;;;;;;1.70;1.60;;;;;;;8.23;74.67;92868.00;2616811;54;20164;-78
2021/12/12 00:37:32;;;;;;;0.63;0.63;;;;;;;8.58;78.29;93075.84;2616566;54;20184;-79
2021/12/12 00:40:14;;;;;;;4.90;1.37;;;;;;;7.44;79.82;92980.28;2616489;47;20153;-78
2021/12/12 00:42:46;;;;;;;1.30;1.30;;;;;;;7.31;80.96;92843.50;2616551;47;20153;-78
2021/12/12 00:45:17;;;;;;;0.80;0.80;;;;;;;7.94;80.65;92983.19;2616884;54;20164;-78
2021/12/12 00:47:48;;;;;;;0.70;0.70;;;;;;;6.48;79.27;92830.84;2617090;39;20567;-77
2021/12/12 00:50:28;;;;;;;0.83;0.83;;;;;;;7.76;80.99;92969.56;2616847;46;20185;-78
2021/12/12 00:52:59;;;;;;;1.00;1.00;;;;;;;8.11;80.03;93139.94;2616828;54;20199;-79
2021/12/12 00:55:28;;;;;;;1.37;1.37;;;;;;;6.16;84.56;93003.13;2616663;54;20163;-79
2021/12/12 00:58:00;;;;;;;0.97;0.97;;;;;;;6.47;90.36;92976.38;2616860;31;20652;-79
2021/12/12 01:00:43;;;;;;;0.97;0.97;;;;;;;7.58;85.54;93067.84;2616613;46;20168;-79
2021/12/12 01:03:14;;;;;;;1.13;1.13;;;;;;;6.59;82.37;92900.66;2616663;47;20256;-79
2021/12/12 01:05:46;;;;;;;1.27;1.27;;;;;;;6.30;81.00;92857.25;2617189;39;20656;-78
2021/12/12 01:08:15;;;;;;;1.27;1.27;;;;;;;6.91;81.32;93006.78;2617007;54;20157;-78
2021/12/12 01:10:54;;;;;;;1.83;1.73;;;;;;;5.99;84.15;93006.97;2616289;46;20187;-78
2021/12/12 01:13:26;;;;;;;2.37;1.93;;;;;;;5.15;88.37;93000.69;2616632;47;20230;-79
2021/12/12 01:16:09;;;;;;;;;;;;;;;;;;;;;
2021/12/12 01:18:41;;;;;;;1.40;1.30;;;;;;;5.30;90.32;93064.22;2616383;54;20182;-79
2021/12/12 01:21:26;;;;;;;;;;;;;;;;;;;;;
2021/12/12 01:24:09;;;;;;;1.67;1.67;;;;;;;5.22;91.77;93087.16;2616371;54;20251;-79
2021/12/12 01:29:49;;;;;;;1.50;1.50;;;;;;;5.97;94.76;92962.69;2616496;47;20153;-79
2021/12/12 01:44:36;;;;;;;;;;;;;;;;;;;;;
2021/12/12 01:47:18;;;;;;;1.20;1.10;;;;;;;6.80;81.25;92879.25;2616872;47;20149;-78
2021/12/12 01:49:50;;;;;;;1.43;1.43;;;;;;;6.87;80.75;93041.16;2616657;54;20688;-79
2021/12/12 01:52:22;;;;;;;0.80;0.80;;;;;;;6.04;80.43;92868.69;2617099;47;20196;-79
2021/12/12 01:55:01;;;;;;;0.40;0.40;;;;;;;8.21;78.73;93142.22;2618054;39;20553;-79
2021/12/12 01:57:36;;;;;;;0.73;0.73;;;;;;;6.32;81.26;92882.59;2613848;47;20153;-79
2021/12/12 02:00:14;;;;;;;0.80;0.80;;;;;;;6.80;80.64;92969.28;2616779;54;20183;-78
2021/12/12 02:02:54;;;;;;;0.40;0.40;;;;;;;6.57;79.91;93013.13;2616291;54;20171;-79
2021/12/12 02:05:24;;;;;;;0.50;0.50;;;;;;;6.48;80.35;93019.25;2617080;39;20532;-79
